sensor_id;sensor_type;location;lat;lon;timestamp;P1;durP1;ratioP1;P2;durP2;ratioP2
37411;SDS011;23278;52.110;6.050;2023-11-19T00:00:33;23.55;;;13.98;;
37411;SDS011;23278;52.110;6.050;2023-11-19T00:02:59;23.58;;;13.75;;
37411;SDS011;23278;52.110;6.050;2023-11-19T00:05:25;23.00;;;13.20;;
37411;SDS011;23278;52.110;6.050;2023-11-19T00:07:53;16.27;;;11.63;;
37411;SDS011;23278;52.110;6.050;2023-11-19T00:10:19;23.13;;;12.18;;
37411;SDS011;23278;52.110;6.050;2023-11-19T00:12:46;17.42;;;11.80;;
37411;SDS011;23278;52.110;6.050;2023-11-19T00:15:13;19.27;;;11.00;;
37411;SDS011;23278;52.110;6.050;2023-11-19T00:17:40;22.63;;;11.57;;
37411;SDS011;23278;52.110;6.050;2023-11-19T00:20:13;17.55;;;11.52;;
37411;SDS011;23278;52.110;6.050;2023-11-19T00:22:43;13.38;;;8.88;;
37411;SDS011;23278;52.110;6.050;2023-11-19T00:25:13;16.88;;;9.77;;
37411;SDS011;23278;52.110;6.050;2023-11-19T00:27:39;19.20;;;8.52;;
37411;SDS011;23278;52.110;6.050;2023-11-19T00:30:05;19.60;;;9.00;;
37411;SDS011;23278;52.110;6.050;2023-11-19T00:32:32;16.20;;;7.65;;
37411;SDS011;23278;52.110;6.050;2023-11-19T00:34:59;22.17;;;9.43;;
37411;SDS011;23278;52.110;6.050;2023-11-19T00:37:25;18.33;;;6.82;;
37411;SDS011;23278;52.110;6.050;2023-11-19T00:39:51;18.33;;;7.55;;
37411;SDS011;23278;52.110;6.050;2023-11-19T00:42:17;14.40;;;5.75;;
37411;SDS011;23278;52.110;6.050;2023-11-19T00:44:43;14.18;;;5.90;;
37411;SDS011;23278;52.110;6.050;2023-11-19T00:47:11;19.27;;;6.47;;
37411;SDS011;23278;52.110;6.050;2023-11-19T00:49:37;15.10;;;6.07;;
37411;SDS011;23278;52.110;6.050;2023-11-19T00:52:03;15.43;;;5.68;;
37411;SDS011;23278;52.110;6.050;2023-11-19T00:54:29;16.52;;;5.53;;
37411;SDS011;23278;52.110;6.050;2023-11-19T00:56:55;20.35;;;5.70;;
37411;SDS011;23278;52.110;6.050;2023-11-19T00:59:22;19.33;;;7.03;;
37411;SDS011;23278;52.110;6.050;2023-11-19T01:01:47;17.98;;;5.90;;
37411;SDS011;23278;52.110;6.050;2023-11-19T01:04:14;11.20;;;3.92;;
37411;SDS011;23278;52.110;6.050;2023-11-19T01:06:40;20.98;;;4.65;;
37411;SDS011;23278;52.110;6.050;2023-11-19T01:09:07;13.50;;;4.20;;
37411;SDS011;23278;52.110;6.050;2023-11-19T01:11:34;15.85;;;4.65;;
37411;SDS011;23278;52.110;6.050;2023-11-19T01:14:00;23.85;;;5.22;;
37411;SDS011;23278;52.110;6.050;2023-11-19T01:16:26;13.02;;;4.65;;
37411;SDS011;23278;52.110;6.050;2023-11-19T01:18:52;16.63;;;5.30;;
37411;SDS011;23278;52.110;6.050;2023-11-19T01:21:18;14.65;;;5.18;;
37411;SDS011;23278;52.110;6.050;2023-11-19T01:23:44;20.13;;;5.25;;
37411;SDS011;23278;52.110;6.050;2023-11-19T01:26:11;21.35;;;4.57;;
37411;SDS011;23278;52.110;6.050;2023-11-19T01:28:38;21.85;;;4.47;;
37411;SDS011;23278;52.110;6.050;2023-11-19T01:31:14;19.77;;;4.40;;
37411;SDS011;23278;52.110;6.050;2023-11-19T01:33:40;20.50;;;6.10;;
37411;SDS011;23278;52.110;6.050;2023-11-19T01:36:12;21.98;;;5.95;;
37411;SDS011;23278;52.110;6.050;2023-11-19T01:38:39;22.38;;;5.70;;
37411;SDS011;23278;52.110;6.050;2023-11-19T01:41:05;16.75;;;4.43;;
37411;SDS011;23278;52.110;6.050;2023-11-19T01:43:34;16.73;;;5.50;;
37411;SDS011;23278;52.110;6.050;2023-11-19T01:46:01;22.70;;;4.97;;
37411;SDS011;23278;52.110;6.050;2023-11-19T01:48:34;20.08;;;4.10;;
37411;SDS011;23278;52.110;6.050;2023-11-19T01:51:01;15.55;;;4.43;;
37411;SDS011;23278;52.110;6.050;2023-11-19T01:53:29;23.55;;;4.55;;
37411;SDS011;23278;52.110;6.050;2023-11-19T01:55:57;22.70;;;4.85;;
37411;SDS011;23278;52.110;6.050;2023-11-19T01:58:23;23.23;;;4.25;;
37411;SDS011;23278;52.110;6.050;2023-11-19T02:00:49;23.33;;;4.75;;
37411;SDS011;23278;52.110;6.050;2023-11-19T02:03:15;29.92;;;5.00;;
37411;SDS011;23278;52.110;6.050;2023-11-19T02:05:42;18.13;;;3.92;;
37411;SDS011;23278;52.110;6.050;2023-11-19T02:08:08;24.27;;;4.65;;
37411;SDS011;23278;52.110;6.050;2023-11-19T02:10:34;21.48;;;5.40;;
37411;SDS011;23278;52.110;6.050;2023-11-19T02:13:00;26.90;;;4.85;;
37411;SDS011;23278;52.110;6.050;2023-11-19T02:15:26;29.40;;;4.20;;
37411;SDS011;23278;52.110;6.050;2023-11-19T02:17:52;19.75;;;5.63;;
37411;SDS011;23278;52.110;6.050;2023-11-19T02:20:18;22.73;;;4.28;;
37411;SDS011;23278;52.110;6.050;2023-11-19T02:22:46;27.98;;;6.30;;
37411;SDS011;23278;52.110;6.050;2023-11-19T02:25:20;24.58;;;5.05;;
37411;SDS011;23278;52.110;6.050;2023-11-19T02:28:01;27.40;;;4.75;;
37411;SDS011;23278;52.110;6.050;2023-11-19T02:30:28;27.45;;;4.90;;
37411;SDS011;23278;52.110;6.050;2023-11-19T02:32:55;27.48;;;4.13;;
37411;SDS011;23278;52.110;6.050;2023-11-19T02:35:25;29.83;;;6.80;;
37411;SDS011;23278;52.110;6.050;2023-11-19T02:37:51;29.15;;;4.40;;
37411;SDS011;23278;52.110;6.050;2023-11-19T02:40:17;27.70;;;7.68;;
37411;SDS011;23278;52.110;6.050;2023-11-19T02:42:43;16.27;;;3.85;;
37411;SDS011;23278;52.110;6.050;2023-11-19T02:45:10;23.17;;;5.32;;
37411;SDS011;23278;52.110;6.050;2023-11-19T02:47:40;29.65;;;4.32;;
37411;SDS011;23278;52.110;6.050;2023-11-19T02:50:10;31.35;;;5.93;;
37411;SDS011;23278;52.110;6.050;2023-11-19T02:52:45;24.17;;;4.93;;
37411;SDS011;23278;52.110;6.050;2023-11-19T02:55:12;35.03;;;5.05;;
37411;SDS011;23278;52.110;6.050;2023-11-19T02:57:38;25.52;;;4.97;;
37411;SDS011;23278;52.110;6.050;2023-11-19T03:00:18;21.80;;;3.65;;
37411;SDS011;23278;52.110;6.050;2023-11-19T03:02:49;29.95;;;6.57;;
37411;SDS011;23278;52.110;6.050;2023-11-19T03:05:24;36.25;;;6.60;;
37411;SDS011;23278;52.110;6.050;2023-11-19T03:07:52;24.75;;;4.47;;
37411;SDS011;23278;52.110;6.050;2023-11-19T03:10:18;30.83;;;5.45;;
37411;SDS011;23278;52.110;6.050;2023-11-19T03:12:44;36.33;;;7.55;;
37411;SDS011;23278;52.110;6.050;2023-11-19T03:15:12;25.27;;;5.32;;
37411;SDS011;23278;52.110;6.050;2023-11-19T03:17:38;32.85;;;5.95;;
37411;SDS011;23278;52.110;6.050;2023-11-19T03:20:05;40.75;;;6.75;;
37411;SDS011;23278;52.110;6.050;2023-11-19T03:22:37;31.13;;;5.45;;
37411;SDS011;23278;52.110;6.050;2023-11-19T03:25:04;35.75;;;5.95;;
37411;SDS011;23278;52.110;6.050;2023-11-19T03:27:34;37.88;;;8.63;;
37411;SDS011;23278;52.110;6.050;2023-11-19T03:30:02;43.28;;;8.55;;
37411;SDS011;23278;52.110;6.050;2023-11-19T03:32:30;33.72;;;5.78;;
37411;SDS011;23278;52.110;6.050;2023-11-19T03:35:01;37.03;;;6.30;;
37411;SDS011;23278;52.110;6.050;2023-11-19T03:37:29;30.90;;;5.55;;
37411;SDS011;23278;52.110;6.050;2023-11-19T03:39:56;41.67;;;9.63;;
37411;SDS011;23278;52.110;6.050;2023-11-19T03:42:27;38.70;;;7.35;;
37411;SDS011;23278;52.110;6.050;2023-11-19T03:44:56;34.05;;;6.53;;
37411;SDS011;23278;52.110;6.050;2023-11-19T03:47:23;46.55;;;9.02;;
37411;SDS011;23278;52.110;6.050;2023-11-19T03:49:49;36.88;;;7.18;;
37411;SDS011;23278;52.110;6.050;2023-11-19T03:52:18;37.10;;;5.80;;
37411;SDS011;23278;52.110;6.050;2023-11-19T03:54:44;34.45;;;5.82;;
37411;SDS011;23278;52.110;6.050;2023-11-19T03:57:11;32.53;;;6.00;;
37411;SDS011;23278;52.110;6.050;2023-11-19T03:59:41;31.23;;;6.68;;
37411;SDS011;23278;52.110;6.050;2023-11-19T04:02:07;39.92;;;6.80;;
37411;SDS011;23278;52.110;6.050;2023-11-19T04:04:33;46.90;;;6.20;;
37411;SDS011;23278;52.110;6.050;2023-11-19T04:06:59;54.00;;;7.75;;
37411;SDS011;23278;52.110;6.050;2023-11-19T04:09:26;33.60;;;6.45;;
37411;SDS011;23278;52.110;6.050;2023-11-19T04:11:52;36.72;;;6.22;;
37411;SDS011;23278;52.110;6.050;2023-11-19T04:14:18;37.25;;;5.57;;
37411;SDS011;23278;52.110;6.050;2023-11-19T04:16:44;37.08;;;9.23;;
37411;SDS011;23278;52.110;6.050;2023-11-19T04:19:10;40.58;;;6.18;;
37411;SDS011;23278;52.110;6.050;2023-11-19T04:21:37;43.80;;;7.22;;
37411;SDS011;23278;52.110;6.050;2023-11-19T04:24:05;38.70;;;7.38;;
37411;SDS011;23278;52.110;6.050;2023-11-19T04:26:33;36.33;;;6.28;;
37411;SDS011;23278;52.110;6.050;2023-11-19T04:28:59;39.63;;;8.57;;
37411;SDS011;23278;52.110;6.050;2023-11-19T04:31:29;33.63;;;5.45;;
37411;SDS011;23278;52.110;6.050;2023-11-19T04:33:56;38.53;;;6.50;;
37411;SDS011;23278;52.110;6.050;2023-11-19T04:36:22;32.17;;;5.45;;
37411;SDS011;23278;52.110;6.050;2023-11-19T04:38:50;42.03;;;6.45;;
37411;SDS011;23278;52.110;6.050;2023-11-19T04:41:15;42.28;;;6.50;;
37411;SDS011;23278;52.110;6.050;2023-11-19T04:43:41;39.38;;;6.78;;
37411;SDS011;23278;52.110;6.050;2023-11-19T04:46:09;39.67;;;6.03;;
37411;SDS011;23278;52.110;6.050;2023-11-19T04:48:35;36.88;;;8.48;;
37411;SDS011;23278;52.110;6.050;2023-11-19T04:51:01;42.28;;;8.32;;
37411;SDS011;23278;52.110;6.050;2023-11-19T04:53:29;46.38;;;8.65;;
37411;SDS011;23278;52.110;6.050;2023-11-19T04:55:55;34.38;;;5.97;;
37411;SDS011;23278;52.110;6.050;2023-11-19T04:58:21;37.15;;;6.57;;
37411;SDS011;23278;52.110;6.050;2023-11-19T05:00:47;25.08;;;5.85;;
37411;SDS011;23278;52.110;6.050;2023-11-19T05:03:13;33.92;;;6.53;;
37411;SDS011;23278;52.110;6.050;2023-11-19T05:05:39;44.85;;;7.50;;
37411;SDS011;23278;52.110;6.050;2023-11-19T05:08:05;39.22;;;6.40;;
37411;SDS011;23278;52.110;6.050;2023-11-19T05:10:31;42.97;;;9.85;;
37411;SDS011;23278;52.110;6.050;2023-11-19T05:12:57;32.60;;;6.13;;
37411;SDS011;23278;52.110;6.050;2023-11-19T05:15:23;36.20;;;5.93;;
37411;SDS011;23278;52.110;6.050;2023-11-19T05:17:49;39.55;;;7.35;;
37411;SDS011;23278;52.110;6.050;2023-11-19T05:20:15;33.85;;;6.20;;
37411;SDS011;23278;52.110;6.050;2023-11-19T05:22:41;53.67;;;8.77;;
37411;SDS011;23278;52.110;6.050;2023-11-19T05:25:08;37.08;;;7.28;;
37411;SDS011;23278;52.110;6.050;2023-11-19T05:27:37;61.15;;;9.10;;
37411;SDS011;23278;52.110;6.050;2023-11-19T05:30:04;34.50;;;6.15;;
37411;SDS011;23278;52.110;6.050;2023-11-19T05:32:33;40.10;;;9.18;;
37411;SDS011;23278;52.110;6.050;2023-11-19T05:34:59;46.28;;;7.72;;
37411;SDS011;23278;52.110;6.050;2023-11-19T05:37:24;40.75;;;7.65;;
37411;SDS011;23278;52.110;6.050;2023-11-19T05:39:50;55.83;;;7.40;;
37411;SDS011;23278;52.110;6.050;2023-11-19T05:42:17;42.92;;;7.07;;
37411;SDS011;23278;52.110;6.050;2023-11-19T05:44:43;43.13;;;7.93;;
37411;SDS011;23278;52.110;6.050;2023-11-19T05:47:09;38.20;;;7.38;;
37411;SDS011;23278;52.110;6.050;2023-11-19T05:49:35;42.05;;;7.90;;
37411;SDS011;23278;52.110;6.050;2023-11-19T05:52:01;48.92;;;7.82;;
37411;SDS011;23278;52.110;6.050;2023-11-19T05:54:28;47.63;;;8.25;;
37411;SDS011;23278;52.110;6.050;2023-11-19T05:56:54;37.80;;;6.00;;
37411;SDS011;23278;52.110;6.050;2023-11-19T05:59:20;35.70;;;8.40;;
37411;SDS011;23278;52.110;6.050;2023-11-19T06:01:48;40.03;;;6.72;;
37411;SDS011;23278;52.110;6.050;2023-11-19T06:04:14;33.97;;;5.60;;
37411;SDS011;23278;52.110;6.050;2023-11-19T06:06:41;49.05;;;8.00;;
37411;SDS011;23278;52.110;6.050;2023-11-19T06:09:07;36.30;;;7.13;;
37411;SDS011;23278;52.110;6.050;2023-11-19T06:11:33;44.08;;;7.40;;
37411;SDS011;23278;52.110;6.050;2023-11-19T06:14:01;37.42;;;7.35;;
37411;SDS011;23278;52.110;6.050;2023-11-19T06:16:28;42.53;;;6.20;;
37411;SDS011;23278;52.110;6.050;2023-11-19T06:18:54;42.67;;;8.32;;
37411;SDS011;23278;52.110;6.050;2023-11-19T06:21:20;34.20;;;7.28;;
37411;SDS011;23278;52.110;6.050;2023-11-19T06:23:46;40.38;;;7.65;;
37411;SDS011;23278;52.110;6.050;2023-11-19T06:26:12;61.55;;;11.50;;
37411;SDS011;23278;52.110;6.050;2023-11-19T06:28:39;47.80;;;8.25;;
37411;SDS011;23278;52.110;6.050;2023-11-19T06:31:05;33.28;;;6.63;;
37411;SDS011;23278;52.110;6.050;2023-11-19T06:33:31;41.92;;;8.75;;
37411;SDS011;23278;52.110;6.050;2023-11-19T06:35:58;37.55;;;7.18;;
37411;SDS011;23278;52.110;6.050;2023-11-19T06:38:25;47.83;;;8.45;;
37411;SDS011;23278;52.110;6.050;2023-11-19T06:40:51;38.10;;;8.02;;
37411;SDS011;23278;52.110;6.050;2023-11-19T06:43:16;41.97;;;8.32;;
37411;SDS011;23278;52.110;6.050;2023-11-19T06:45:43;35.08;;;7.65;;
37411;SDS011;23278;52.110;6.050;2023-11-19T06:48:09;45.25;;;7.80;;
37411;SDS011;23278;52.110;6.050;2023-11-19T06:50:34;50.05;;;7.60;;
37411;SDS011;23278;52.110;6.050;2023-11-19T06:53:00;40.20;;;6.72;;
37411;SDS011;23278;52.110;6.050;2023-11-19T06:55:26;42.50;;;8.27;;
37411;SDS011;23278;52.110;6.050;2023-11-19T06:57:52;59.40;;;7.55;;
37411;SDS011;23278;52.110;6.050;2023-11-19T07:00:18;43.35;;;9.30;;
37411;SDS011;23278;52.110;6.050;2023-11-19T07:02:45;45.67;;;9.95;;
37411;SDS011;23278;52.110;6.050;2023-11-19T07:05:11;47.67;;;8.77;;
37411;SDS011;23278;52.110;6.050;2023-11-19T07:07:38;49.47;;;8.25;;
37411;SDS011;23278;52.110;6.050;2023-11-19T07:10:05;43.20;;;8.27;;
37411;SDS011;23278;52.110;6.050;2023-11-19T07:12:34;43.30;;;6.78;;
37411;SDS011;23278;52.110;6.050;2023-11-19T07:15:01;50.85;;;8.60;;
37411;SDS011;23278;52.110;6.050;2023-11-19T07:17:29;39.85;;;7.70;;
37411;SDS011;23278;52.110;6.050;2023-11-19T07:19:56;38.95;;;6.25;;
37411;SDS011;23278;52.110;6.050;2023-11-19T07:22:25;33.55;;;5.93;;
37411;SDS011;23278;52.110;6.050;2023-11-19T07:24:51;44.75;;;6.63;;
37411;SDS011;23278;52.110;6.050;2023-11-19T07:27:18;37.13;;;6.18;;
37411;SDS011;23278;52.110;6.050;2023-11-19T07:29:44;44.08;;;6.13;;
37411;SDS011;23278;52.110;6.050;2023-11-19T07:32:11;40.90;;;7.85;;
37411;SDS011;23278;52.110;6.050;2023-11-19T07:34:38;44.38;;;8.52;;
37411;SDS011;23278;52.110;6.050;2023-11-19T07:37:05;38.22;;;6.82;;
37411;SDS011;23278;52.110;6.050;2023-11-19T07:39:31;44.13;;;6.85;;
37411;SDS011;23278;52.110;6.050;2023-11-19T07:41:57;47.03;;;8.38;;
37411;SDS011;23278;52.110;6.050;2023-11-19T07:44:24;42.85;;;9.32;;
37411;SDS011;23278;52.110;6.050;2023-11-19T07:46:50;40.25;;;7.40;;
37411;SDS011;23278;52.110;6.050;2023-11-19T07:49:16;44.00;;;8.30;;
37411;SDS011;23278;52.110;6.050;2023-11-19T07:51:42;43.90;;;7.40;;
37411;SDS011;23278;52.110;6.050;2023-11-19T07:54:08;37.75;;;8.63;;
37411;SDS011;23278;52.110;6.050;2023-11-19T07:56:34;29.30;;;5.72;;
37411;SDS011;23278;52.110;6.050;2023-11-19T07:59:03;52.55;;;7.43;;
37411;SDS011;23278;52.110;6.050;2023-11-19T08:01:29;34.20;;;7.43;;
37411;SDS011;23278;52.110;6.050;2023-11-19T08:03:55;37.45;;;7.55;;
37411;SDS011;23278;52.110;6.050;2023-11-19T08:06:21;40.47;;;5.55;;
37411;SDS011;23278;52.110;6.050;2023-11-19T08:08:48;28.45;;;7.65;;
37411;SDS011;23278;52.110;6.050;2023-11-19T08:11:14;46.75;;;7.57;;
37411;SDS011;23278;52.110;6.050;2023-11-19T08:13:40;32.95;;;6.22;;
37411;SDS011;23278;52.110;6.050;2023-11-19T08:16:07;39.58;;;6.55;;
37411;SDS011;23278;52.110;6.050;2023-11-19T08:18:33;33.42;;;5.57;;
37411;SDS011;23278;52.110;6.050;2023-11-19T08:20:59;34.15;;;6.53;;
37411;SDS011;23278;52.110;6.050;2023-11-19T08:23:26;38.92;;;7.30;;
37411;SDS011;23278;52.110;6.050;2023-11-19T08:25:53;24.27;;;5.55;;
37411;SDS011;23278;52.110;6.050;2023-11-19T08:28:19;39.50;;;7.22;;
37411;SDS011;23278;52.110;6.050;2023-11-19T08:30:45;42.75;;;6.68;;
37411;SDS011;23278;52.110;6.050;2023-11-19T08:33:12;38.25;;;5.97;;
37411;SDS011;23278;52.110;6.050;2023-11-19T08:35:38;32.45;;;8.05;;
37411;SDS011;23278;52.110;6.050;2023-11-19T08:38:04;32.72;;;6.30;;
37411;SDS011;23278;52.110;6.050;2023-11-19T08:40:29;35.30;;;5.65;;
37411;SDS011;23278;52.110;6.050;2023-11-19T08:42:55;40.65;;;8.52;;
37411;SDS011;23278;52.110;6.050;2023-11-19T08:45:22;30.58;;;6.18;;
37411;SDS011;23278;52.110;6.050;2023-11-19T08:47:48;40.72;;;6.68;;
37411;SDS011;23278;52.110;6.050;2023-11-19T08:50:13;35.55;;;7.75;;
37411;SDS011;23278;52.110;6.050;2023-11-19T08:52:39;35.30;;;7.50;;
37411;SDS011;23278;52.110;6.050;2023-11-19T08:55:05;34.80;;;7.03;;
37411;SDS011;23278;52.110;6.050;2023-11-19T08:57:32;32.72;;;6.60;;
37411;SDS011;23278;52.110;6.050;2023-11-19T08:59:58;39.67;;;6.88;;
37411;SDS011;23278;52.110;6.050;2023-11-19T09:02:24;38.63;;;5.40;;
37411;SDS011;23278;52.110;6.050;2023-11-19T09:04:50;34.55;;;5.78;;
37411;SDS011;23278;52.110;6.050;2023-11-19T09:07:16;36.25;;;6.53;;
37411;SDS011;23278;52.110;6.050;2023-11-19T09:09:42;31.33;;;5.47;;
37411;SDS011;23278;52.110;6.050;2023-11-19T09:12:08;36.08;;;5.72;;
37411;SDS011;23278;52.110;6.050;2023-11-19T09:14:34;34.88;;;6.07;;
37411;SDS011;23278;52.110;6.050;2023-11-19T09:17:00;31.17;;;6.30;;
37411;SDS011;23278;52.110;6.050;2023-11-19T09:19:26;41.90;;;7.45;;
37411;SDS011;23278;52.110;6.050;2023-11-19T09:21:52;37.40;;;6.43;;
37411;SDS011;23278;52.110;6.050;2023-11-19T09:24:18;28.92;;;5.25;;
37411;SDS011;23278;52.110;6.050;2023-11-19T09:26:44;30.45;;;5.32;;
37411;SDS011;23278;52.110;6.050;2023-11-19T09:29:10;27.35;;;6.03;;
37411;SDS011;23278;52.110;6.050;2023-11-19T09:31:39;33.08;;;5.78;;
37411;SDS011;23278;52.110;6.050;2023-11-19T09:34:06;34.25;;;6.03;;
37411;SDS011;23278;52.110;6.050;2023-11-19T09:36:32;30.30;;;5.80;;
37411;SDS011;23278;52.110;6.050;2023-11-19T09:38:57;18.60;;;4.72;;
37411;SDS011;23278;52.110;6.050;2023-11-19T09:41:25;24.10;;;6.40;;
37411;SDS011;23278;52.110;6.050;2023-11-19T09:43:53;33.40;;;7.40;;
37411;SDS011;23278;52.110;6.050;2023-11-19T09:46:20;23.58;;;5.40;;
37411;SDS011;23278;52.110;6.050;2023-11-19T09:48:49;22.50;;;5.70;;
37411;SDS011;23278;52.110;6.050;2023-11-19T09:51:21;32.60;;;6.80;;
37411;SDS011;23278;52.110;6.050;2023-11-19T09:53:47;31.08;;;6.38;;
37411;SDS011;23278;52.110;6.050;2023-11-19T09:56:14;26.25;;;5.75;;
37411;SDS011;23278;52.110;6.050;2023-11-19T09:58:42;24.35;;;5.15;;
37411;SDS011;23278;52.110;6.050;2023-11-19T10:01:08;30.58;;;5.15;;
37411;SDS011;23278;52.110;6.050;2023-11-19T10:03:37;29.15;;;5.53;;
37411;SDS011;23278;52.110;6.050;2023-11-19T10:06:08;35.45;;;5.32;;
37411;SDS011;23278;52.110;6.050;2023-11-19T10:08:37;28.52;;;4.95;;
37411;SDS011;23278;52.110;6.050;2023-11-19T10:11:05;32.45;;;5.75;;
37411;SDS011;23278;52.110;6.050;2023-11-19T10:13:33;31.98;;;7.88;;
37411;SDS011;23278;52.110;6.050;2023-11-19T10:16:24;24.13;;;5.33;;
37411;SDS011;23278;52.110;6.050;2023-11-19T10:18:58;25.35;;;5.90;;
37411;SDS011;23278;52.110;6.050;2023-11-19T10:21:24;41.10;;;6.68;;
37411;SDS011;23278;52.110;6.050;2023-11-19T10:23:59;32.05;;;6.32;;
37411;SDS011;23278;52.110;6.050;2023-11-19T10:26:26;29.85;;;4.97;;
37411;SDS011;23278;52.110;6.050;2023-11-19T10:28:52;31.10;;;6.45;;
37411;SDS011;23278;52.110;6.050;2023-11-19T10:31:20;23.27;;;6.57;;
37411;SDS011;23278;52.110;6.050;2023-11-19T10:33:50;24.02;;;6.00;;
37411;SDS011;23278;52.110;6.050;2023-11-19T10:36:16;36.60;;;6.75;;
37411;SDS011;23278;52.110;6.050;2023-11-19T10:38:52;36.90;;;5.55;;
37411;SDS011;23278;52.110;6.050;2023-11-19T10:41:31;25.48;;;6.68;;
37411;SDS011;23278;52.110;6.050;2023-11-19T10:43:58;27.58;;;5.18;;
37411;SDS011;23278;52.110;6.050;2023-11-19T10:46:35;28.50;;;5.47;;
37411;SDS011;23278;52.110;6.050;2023-11-19T10:49:04;30.05;;;4.35;;
37411;SDS011;23278;52.110;6.050;2023-11-19T10:51:31;29.83;;;6.13;;
37411;SDS011;23278;52.110;6.050;2023-11-19T10:54:02;28.75;;;4.82;;
37411;SDS011;23278;52.110;6.050;2023-11-19T10:56:32;23.73;;;5.60;;
37411;SDS011;23278;52.110;6.050;2023-11-19T10:58:59;28.60;;;5.10;;
37411;SDS011;23278;52.110;6.050;2023-11-19T11:01:32;22.38;;;4.93;;
37411;SDS011;23278;52.110;6.050;2023-11-19T11:04:13;20.13;;;5.88;;
37411;SDS011;23278;52.110;6.050;2023-11-19T11:06:43;21.88;;;4.65;;
37411;SDS011;23278;52.110;6.050;2023-11-19T11:09:09;22.95;;;4.72;;
37411;SDS011;23278;52.110;6.050;2023-11-19T11:11:40;33.97;;;6.20;;
37411;SDS011;23278;52.110;6.050;2023-11-19T11:14:10;24.95;;;5.82;;
37411;SDS011;23278;52.110;6.050;2023-11-19T11:16:42;28.38;;;6.90;;
37411;SDS011;23278;52.110;6.050;2023-11-19T11:19:09;23.48;;;5.35;;
37411;SDS011;23278;52.110;6.050;2023-11-19T11:21:36;24.10;;;4.85;;
37411;SDS011;23278;52.110;6.050;2023-11-19T11:29:05;22.92;;;4.88;;
37411;SDS011;23278;52.110;6.050;2023-11-19T11:31:56;25.88;;;5.53;;
37411;SDS011;23278;52.110;6.050;2023-11-19T11:37:35;26.75;;;5.95;;
37411;SDS011;23278;52.110;6.050;2023-11-19T11:40:14;27.98;;;5.47;;
37411;SDS011;23278;52.110;6.050;2023-11-19T11:42:41;20.45;;;3.65;;
37411;SDS011;23278;52.110;6.050;2023-11-19T11:45:08;22.67;;;5.60;;
37411;SDS011;23278;52.110;6.050;2023-11-19T11:48:23;24.38;;;5.32;;
37411;SDS011;23278;52.110;6.050;2023-11-19T11:50:24;22.17;;;5.07;;
37411;SDS011;23278;52.110;6.050;2023-11-19T11:57:49;25.63;;;5.60;;
37411;SDS011;23278;52.110;6.050;2023-11-19T12:00:48;22.10;;;4.25;;
37411;SDS011;23278;52.110;6.050;2023-11-19T12:03:08;28.63;;;4.65;;
37411;SDS011;23278;52.110;6.050;2023-11-19T12:05:43;17.52;;;3.97;;
37411;SDS011;23278;52.110;6.050;2023-11-19T12:08:10;19.63;;;3.88;;
37411;SDS011;23278;52.110;6.050;2023-11-19T12:10:47;25.35;;;5.93;;
37411;SDS011;23278;52.110;6.050;2023-11-19T12:13:18;24.80;;;5.03;;
37411;SDS011;23278;52.110;6.050;2023-11-19T12:18:28;27.45;;;6.20;;
37411;SDS011;23278;52.110;6.050;2023-11-19T12:21:01;30.75;;;7.00;;
37411;SDS011;23278;52.110;6.050;2023-11-19T12:23:31;20.95;;;4.22;;
37411;SDS011;23278;52.110;6.050;2023-11-19T12:25:57;26.63;;;5.25;;
37411;SDS011;23278;52.110;6.050;2023-11-19T12:28:24;18.30;;;3.63;;
37411;SDS011;23278;52.110;6.050;2023-11-19T12:30:53;20.77;;;3.58;;
37411;SDS011;23278;52.110;6.050;2023-11-19T12:33:32;19.40;;;3.90;;
37411;SDS011;23278;52.110;6.050;2023-11-19T12:35:58;31.80;;;4.55;;
37411;SDS011;23278;52.110;6.050;2023-11-19T12:38:26;19.75;;;3.95;;
37411;SDS011;23278;52.110;6.050;2023-11-19T12:41:04;21.25;;;5.00;;
37411;SDS011;23278;52.110;6.050;2023-11-19T12:43:37;21.13;;;3.72;;
37411;SDS011;23278;52.110;6.050;2023-11-19T12:46:16;17.27;;;4.15;;
37411;SDS011;23278;52.110;6.050;2023-11-19T12:48:48;21.33;;;5.32;;
37411;SDS011;23278;52.110;6.050;2023-11-19T12:51:15;18.25;;;3.10;;
37411;SDS011;23278;52.110;6.050;2023-11-19T12:53:48;20.42;;;3.60;;
37411;SDS011;23278;52.110;6.050;2023-11-19T12:56:23;19.35;;;3.88;;
37411;SDS011;23278;52.110;6.050;2023-11-19T12:58:49;18.65;;;3.88;;
37411;SDS011;23278;52.110;6.050;2023-11-19T13:01:16;28.27;;;5.28;;
37411;SDS011;23278;52.110;6.050;2023-11-19T13:03:44;24.02;;;4.43;;
37411;SDS011;23278;52.110;6.050;2023-11-19T13:06:11;15.75;;;2.88;;
37411;SDS011;23278;52.110;6.050;2023-11-19T13:08:46;19.42;;;4.47;;
37411;SDS011;23278;52.110;6.050;2023-11-19T13:11:30;22.48;;;7.13;;
37411;SDS011;23278;52.110;6.050;2023-11-19T13:16:30;23.48;;;3.85;;
37411;SDS011;23278;52.110;6.050;2023-11-19T13:18:56;26.30;;;5.05;;
37411;SDS011;23278;52.110;6.050;2023-11-19T13:21:23;20.48;;;4.15;;
37411;SDS011;23278;52.110;6.050;2023-11-19T13:23:49;20.27;;;4.93;;
37411;SDS011;23278;52.110;6.050;2023-11-19T13:26:15;16.15;;;2.80;;
37411;SDS011;23278;52.110;6.050;2023-11-19T13:28:41;19.38;;;3.10;;
37411;SDS011;23278;52.110;6.050;2023-11-19T13:31:07;14.48;;;3.42;;
37411;SDS011;23278;52.110;6.050;2023-11-19T13:33:33;19.38;;;3.28;;
37411;SDS011;23278;52.110;6.050;2023-11-19T13:35:59;16.50;;;3.03;;
37411;SDS011;23278;52.110;6.050;2023-11-19T13:38:34;16.00;;;3.30;;
37411;SDS011;23278;52.110;6.050;2023-11-19T13:41:04;21.65;;;4.40;;
37411;SDS011;23278;52.110;6.050;2023-11-19T13:43:31;13.40;;;2.92;;
37411;SDS011;23278;52.110;6.050;2023-11-19T13:45:57;22.55;;;4.10;;
37411;SDS011;23278;52.110;6.050;2023-11-19T13:48:23;12.02;;;3.70;;
37411;SDS011;23278;52.110;6.050;2023-11-19T13:50:50;20.13;;;5.00;;
37411;SDS011;23278;52.110;6.050;2023-11-19T13:53:16;21.65;;;4.55;;
37411;SDS011;23278;52.110;6.050;2023-11-19T13:55:42;14.98;;;3.53;;
37411;SDS011;23278;52.110;6.050;2023-11-19T13:58:08;20.67;;;3.70;;
37411;SDS011;23278;52.110;6.050;2023-11-19T14:00:35;26.17;;;4.65;;
37411;SDS011;23278;52.110;6.050;2023-11-19T14:03:02;23.27;;;5.35;;
37411;SDS011;23278;52.110;6.050;2023-11-19T14:05:28;29.23;;;4.05;;
37411;SDS011;23278;52.110;6.050;2023-11-19T14:07:54;23.55;;;4.45;;
37411;SDS011;23278;52.110;6.050;2023-11-19T14:10:22;26.17;;;5.78;;
37411;SDS011;23278;52.110;6.050;2023-11-19T14:12:48;30.67;;;8.18;;
37411;SDS011;23278;52.110;6.050;2023-11-19T14:15:15;31.33;;;5.43;;
37411;SDS011;23278;52.110;6.050;2023-11-19T14:17:44;22.30;;;5.35;;
37411;SDS011;23278;52.110;6.050;2023-11-19T14:20:10;23.17;;;4.82;;
37411;SDS011;23278;52.110;6.050;2023-11-19T14:22:41;29.42;;;4.35;;
37411;SDS011;23278;52.110;6.050;2023-11-19T14:25:11;28.00;;;4.63;;
37411;SDS011;23278;52.110;6.050;2023-11-19T14:27:37;34.40;;;5.28;;
37411;SDS011;23278;52.110;6.050;2023-11-19T14:30:07;29.75;;;5.68;;
37411;SDS011;23278;52.110;6.050;2023-11-19T14:32:36;37.97;;;5.40;;
37411;SDS011;23278;52.110;6.050;2023-11-19T14:35:03;30.83;;;4.43;;
37411;SDS011;23278;52.110;6.050;2023-11-19T14:37:30;28.00;;;4.63;;
37411;SDS011;23278;52.110;6.050;2023-11-19T14:39:57;24.38;;;4.22;;
37411;SDS011;23278;52.110;6.050;2023-11-19T14:42:23;28.50;;;4.65;;
37411;SDS011;23278;52.110;6.050;2023-11-19T14:44:50;36.17;;;5.72;;
37411;SDS011;23278;52.110;6.050;2023-11-19T14:47:21;35.03;;;5.45;;
37411;SDS011;23278;52.110;6.050;2023-11-19T14:49:47;31.45;;;5.20;;
37411;SDS011;23278;52.110;6.050;2023-11-19T14:52:13;23.33;;;4.57;;
37411;SDS011;23278;52.110;6.050;2023-11-19T14:54:39;43.22;;;6.60;;